Hansonville, Virginia
Current Conditions -  °F | °C
As of 1:55 AM on Thursday 23 Oct 2014 (Local Time) from KVJI Reporting Station
Overcast Overcast  
Wind Chill: 45°   Ceiling: 1900
Heat Index: 47°   Visibility: 10mi
Dew Point: 41°   Wind: 5mph
Humidity: 78%   Direction: 350°N
Pressure: 30.17"   Gusts: NA
Location:  36.85°N, 82.1249°W
Report Text: KVJI 230555Z AUTO 35004KT 10SM OVC019 09/05 A3017 RMK AO2 T00850049 10085 20078 400940066
Loading
Personal Weather Stations






























Interactive Weather Map
Tropical Storm Tracking
New forecast layout! Learn more

10-Day Weather Forecast

Advertisements
Track Severe Weather on mobile